Time;durP1;ratioP1;P1;durP2;ratioP2;P2;SDS_P1;SDS_P2;PMS_P1;PMS_P2;Temp;Humidity;BMP_temperature;BMP_pressure;BME280_temperature;BME280_humidity;BME280_pressure;Samples;Min_cycle;Max_cycle;Signal;HPM_P1;HPM_P2
2023/11/05 00:00:50;;;;;;;;;;;;;;;23.96;36.84;96678.81;4215761;28;19928;-58
2023/11/05 00:02:51;;;;;;;;;;;;;;;24.06;36.90;96684.38;4215686;28;20023;-58
2023/11/05 00:04:54;;;;;;;;;;;;;;;24.08;37.15;96687.63;4215973;28;20377;-58
2023/11/05 00:06:55;;;;;;;;;;;;;;;24.11;36.82;96689.84;4215893;28;19924;-58
2023/11/05 00:09:02;;;;;;;;;;;;;;;24.10;36.86;96685.53;4216011;28;20390;-58
2023/11/05 00:11:04;;;;;;;;;;;;;;;24.09;36.86;96683.88;4215948;28;19924;-58
2023/11/05 00:13:05;;;;;;;;;;;;;;;24.08;37.09;96688.44;4216037;28;19946;-58
2023/11/05 00:15:08;;;;;;;;;;;;;;;24.09;37.01;96690.06;4215649;28;19978;-58
2023/11/05 00:17:09;;;;;;;;;;;;;;;24.09;36.95;96678.50;4215549;28;19952;-58
2023/11/05 00:19:11;;;;;;;;;;;;;;;24.09;36.93;96673.94;4215591;28;19953;-58
2023/11/05 00:21:12;;;;;;;;;;;;;;;24.12;37.10;96672.69;4215682;28;20003;-57
2023/11/05 00:23:14;;;;;;;;;;;;;;;24.13;36.85;96668.13;4215752;28;19981;-58
2023/11/05 00:25:16;;;;;;;;;;;;;;;24.15;36.92;96671.38;4215649;28;20368;-58
2023/11/05 00:27:17;;;;;;;;;;;;;;;24.15;37.01;96666.00;4215683;28;19928;-57
2023/11/05 00:29:19;;;;;;;;;;;;;;;24.15;36.82;96669.50;4215013;28;20462;-58
2023/11/05 00:31:26;;;;;;;;;;;;;;;24.16;36.82;96664.97;4215412;28;20398;-58
2023/11/05 00:33:27;;;;;;;;;;;;;;;24.15;37.08;96661.44;4215278;28;19946;-57
2023/11/05 00:35:30;;;;;;;;;;;;;;;24.14;37.07;96667.06;4215498;28;19928;-58
2023/11/05 00:37:31;;;;;;;;;;;;;;;24.13;36.88;96660.88;4215186;28;19924;-58
2023/11/05 00:39:33;;;;;;;;;;;;;;;24.13;36.92;96655.50;4215298;28;19962;-58
2023/11/05 00:41:35;;;;;;;;;;;;;;;24.13;36.89;96657.38;4215456;28;19989;-58
2023/11/05 00:43:37;;;;;;;;;;;;;;;24.15;36.88;96656.06;4214855;28;19925;-58
2023/11/05 00:45:39;;;;;;;;;;;;;;;24.15;36.88;96653.38;4215681;28;19958;-58
2023/11/05 00:47:40;;;;;;;;;;;;;;;24.17;36.95;96659.34;4215154;28;20052;-58
2023/11/05 00:49:42;;;;;;;;;;;;;;;24.18;36.98;96646.72;4214606;28;19928;-57
2023/11/05 00:51:43;;;;;;;;;;;;;;;24.20;36.75;96644.63;4215452;28;19924;-58
2023/11/05 00:53:45;;;;;;;;;;;;;;;24.19;37.10;96653.72;4215135;28;19928;-58
2023/11/05 00:55:46;;;;;;;;;;;;;;;24.18;36.89;96649.41;4214978;28;19989;-58
2023/11/05 00:57:48;;;;;;;;;;;;;;;24.16;37.16;96644.28;4214679;28;19924;-58
2023/11/05 00:59:49;;;;;;;;;;;;;;;24.15;36.88;96656.06;4215161;28;20035;-58
2023/11/05 01:01:51;;;;;;;;;;;;;;;24.14;37.17;96646.38;4214998;28;19974;-58
2023/11/05 01:03:53;;;;;;;;;;;;;;;24.14;37.38;96637.53;4214829;28;20393;-58
2023/11/05 01:05:54;;;;;;;;;;;;;;;24.17;37.17;96645.91;4214942;28;19934;-57
2023/11/05 01:07:56;;;;;;;;;;;;;;;24.17;36.95;96645.91;4215120;28;19931;-57
2023/11/05 01:09:58;;;;;;;;;;;;;;;24.17;36.80;96651.28;4196775;28;19931;-58
2023/11/05 01:11:59;;;;;;;;;;;;;;;24.18;37.19;96639.50;4215115;28;19928;-57
2023/11/05 01:14:01;;;;;;;;;;;;;;;24.18;37.13;96636.81;4214831;28;19924;-58
2023/11/05 01:16:03;;;;;;;;;;;;;;;24.18;36.87;96638.66;4214767;28;19956;-58
2023/11/05 01:18:09;;;;;;;;;;;;;;;24.19;37.19;96635.75;4214407;28;19928;-58
2023/11/05 01:20:11;;;;;;;;;;;;;;;24.17;36.80;96639.72;4214650;28;19924;-57
2023/11/05 01:22:12;;;;;;;;;;;;;;;24.15;37.20;96641.84;4214641;28;19930;-58
2023/11/05 01:24:14;;;;;;;;;;;;;;;24.15;37.24;96641.84;4214515;28;19977;-58
2023/11/05 01:26:16;;;;;;;;;;;;;;;24.13;37.08;96652.81;4214482;28;20374;-60
2023/11/05 01:28:17;;;;;;;;;;;;;;;24.14;37.08;96642.91;4214547;28;19930;-58
2023/11/05 01:30:19;;;;;;;;;;;;;;;24.17;36.98;96639.72;4214376;28;19932;-58
2023/11/05 01:32:21;;;;;;;;;;;;;;;24.17;37.23;96642.41;4214503;28;19924;-58
2023/11/05 01:34:22;;;;;;;;;;;;;;;24.18;36.98;96638.66;4214868;28;20014;-58
2023/11/05 01:36:24;;;;;;;;;;;;;;;24.19;37.10;96640.28;4214565;28;19951;-58
2023/11/05 01:38:26;;;;;;;;;;;;;;;24.20;36.99;96647.31;4214453;28;19924;-57
2023/11/05 01:40:27;;;;;;;;;;;;;;;24.20;37.30;96649.97;4214359;28;19956;-58
2023/11/05 01:42:29;;;;;;;;;;;;;;;24.19;37.07;96651.88;4213923;28;20015;-58
2023/11/05 01:44:30;;;;;;;;;;;;;;;24.17;37.29;96664.72;4214206;28;20002;-58
2023/11/05 01:46:32;;;;;;;;;;;;;;;24.17;36.98;96655.81;4214112;28;19924;-57
2023/11/05 01:48:34;;;;;;;;;;;;;;;24.16;37.06;96656.91;4214275;28;20054;-57
2023/11/05 01:50:35;;;;;;;;;;;;;;;24.18;37.06;96666.34;4214000;28;19930;-57
2023/11/05 01:52:37;;;;;;;;;;;;;;;24.19;36.94;96672.50;4214375;28;19930;-57
2023/11/05 01:54:40;;;;;;;;;;;;;;;24.20;37.36;96683.00;4214300;28;19928;-57
2023/11/05 01:56:42;;;;;;;;;;;;;;;24.22;37.04;96688.16;4196067;28;19925;-57
2023/11/05 01:58:43;;;;;;;;;;;;;;;24.23;37.02;96684.41;4214026;28;19923;-57
2023/11/05 02:00:46;;;;;;;;;;;;;;;24.22;37.11;96685.47;4213984;28;19928;-58
2023/11/05 02:02:47;;;;;;;;;;;;;;;24.21;37.22;96687.31;4195460;28;19931;-58
2023/11/05 02:04:49;;;;;;;;;;;;;;;24.20;37.04;96695.63;4214229;28;19951;-57
2023/11/05 02:06:51;;;;;;;;;;;;;;;24.20;37.15;96698.31;4214115;28;19924;-58
2023/11/05 02:08:52;;;;;;;;;;;;;;;24.18;37.16;96708.47;4214038;28;20424;-58
2023/11/05 02:10:54;;;;;;;;;;;;;;;24.19;37.08;96712.78;4213781;28;19924;-57
2023/11/05 02:12:56;;;;;;;;;;;;;;;24.18;37.34;96719.19;4213802;28;20462;-57
2023/11/05 02:14:58;;;;;;;;;;;;;;;24.18;37.21;96722.72;4213921;28;19947;-58
2023/11/05 02:17:00;;;;;;;;;;;;;;;24.20;37.41;96717.09;4214007;28;19928;-58
2023/11/05 02:19:01;;;;;;;;;;;;;;;24.23;37.30;96724.69;4213820;28;20006;-57
2023/11/05 02:21:04;;;;;;;;;;;;;;;24.24;36.92;96735.16;4214136;28;19946;-57
2023/11/05 02:23:07;;;;;;;;;;;;;;;24.24;37.28;96734.34;4214018;28;20266;-58
2023/11/05 02:25:08;;;;;;;;;;;;;;;24.24;36.95;96737.03;4213689;28;20402;-58
2023/11/05 02:27:15;;;;;;;;;;;;;;;24.23;37.04;96746.16;4196387;28;20031;-58
2023/11/05 02:29:21;;;;;;;;;;;;;;;24.22;37.21;96744.53;4213657;28;19924;-58
2023/11/05 02:31:23;;;;;;;;;;;;;;;24.22;37.24;96747.22;4213723;28;19924;-58
2023/11/05 02:33:24;;;;;;;;;;;;;;;24.21;37.04;96754.44;4213625;28;19924;-58
2023/11/05 02:35:26;;;;;;;;;;;;;;;24.22;37.33;96760.63;4213755;28;19924;-58
2023/11/05 02:37:28;;;;;;;;;;;;;;;24.23;37.44;96770.31;4213746;28;19986;-58
2023/11/05 02:39:34;;;;;;;;;;;;;;;24.25;37.20;96768.19;4213189;28;19946;-58
2023/11/05 02:41:35;;;;;;;;;;;;;;;24.27;37.29;96779.53;4213923;28;19924;-58
2023/11/05 02:43:38;;;;;;;;;;;;;;;24.28;37.24;96778.47;4213450;28;20353;-58
2023/11/05 02:45:39;;;;;;;;;;;;;;;24.29;37.21;96790.00;4213438;28;19928;-57
2023/11/05 02:47:41;;;;;;;;;;;;;;;24.29;37.02;96792.69;4178904;28;20015;-58
2023/11/05 02:49:43;;;;;;;;;;;;;;;24.28;37.01;96799.94;4213467;28;19923;-58
2023/11/05 02:51:45;;;;;;;;;;;;;;;24.27;37.06;96794.81;4213694;28;19924;-58
2023/11/05 02:53:46;;;;;;;;;;;;;;;24.25;36.98;96803.09;4213269;28;20369;-58
2023/11/05 02:55:48;;;;;;;;;;;;;;;24.24;37.20;96804.16;4213784;28;20010;-57
2023/11/05 02:57:49;;;;;;;;;;;;;;;24.25;37.20;96808.47;4213511;28;19928;-58
2023/11/05 02:59:51;;;;;;;;;;;;;;;24.27;37.22;96816.31;4213536;28;19924;-57
2023/11/05 03:01:52;;;;;;;;;;;;;;;24.30;37.02;96823.88;4213563;28;20019;-58
2023/11/05 03:03:54;;;;;;;;;;;;;;;24.30;36.95;96821.97;4213572;28;19928;-58
2023/11/05 03:05:56;;;;;;;;;;;;;;;24.30;36.95;96824.66;4213603;28;20334;-57
2023/11/05 03:07:57;;;;;;;;;;;;;;;24.32;36.92;96829.81;4213219;28;19924;-58
2023/11/05 03:09:59;;;;;;;;;;;;;;;24.31;36.89;96836.25;4213396;28;20449;-58
2023/11/05 03:12:00;;;;;;;;;;;;;;;24.30;37.05;96827.34;4213514;28;20014;-58
2023/11/05 03:14:02;;;;;;;;;;;;;;;24.30;37.01;96829.22;4215585;28;20461;-58
2023/11/05 03:16:11;;;;;;;;;;;;;;;24.29;36.79;96832.97;4216885;28;20007;-58
2023/11/05 03:18:13;;;;;;;;;;;;;;;24.27;36.97;96838.59;4216536;28;19924;-58
2023/11/05 03:20:15;;;;;;;;;;;;;;;24.28;36.78;96845.59;4216564;28;19924;-58
2023/11/05 03:22:17;;;;;;;;;;;;;;;24.30;36.93;96848.84;4216311;28;19977;-61
2023/11/05 03:24:18;;;;;;;;;;;;;;;24.32;37.02;96854.78;4216595;28;20456;-59
2023/11/05 03:26:20;;;;;;;;;;;;;;;24.33;37.04;96861.00;4198857;28;19928;-59
2023/11/05 03:28:22;;;;;;;;;;;;;;;24.35;36.82;96862.38;4216557;28;19985;-59
2023/11/05 03:30:24;;;;;;;;;;;;;;;24.34;36.97;96870.66;4216823;28;19931;-59
2023/11/05 03:32:26;;;;;;;;;;;;;;;24.34;36.86;96876.03;4216706;28;20301;-57
2023/11/05 03:34:28;;;;;;;;;;;;;;;24.32;36.99;96876.28;4216244;28;19924;-58
2023/11/05 03:36:29;;;;;;;;;;;;;;;24.32;36.83;96889.69;4216589;28;19931;-59
2023/11/05 03:38:31;;;;;;;;;;;;;;;24.32;36.92;96888.91;4216039;28;19928;-59
2023/11/05 03:40:32;;;;;;;;;;;;;;;24.30;36.94;96889.09;4216199;28;19928;-58
2023/11/05 03:42:34;;;;;;;;;;;;;;;24.30;36.92;96891.78;4216332;28;20312;-59
2023/11/05 03:44:36;;;;;;;;;;;;;;;24.31;36.78;96896.13;4216206;28;20288;-58
2023/11/05 03:46:38;;;;;;;;;;;;;;;24.32;37.08;96894.25;4216330;28;19924;-58
2023/11/05 03:48:41;;;;;;;;;;;;;;;24.35;36.68;96902.66;4216312;28;19925;-58
2023/11/05 03:50:43;;;;;;;;;;;;;;;24.36;37.04;96908.84;4216083;28;19974;-58
2023/11/05 03:52:45;;;;;;;;;;;;;;;24.38;37.05;96912.09;4215962;28;20297;-58
2023/11/05 03:54:46;;;;;;;;;;;;;;;24.37;36.74;96923.91;4216214;28;19964;-59
2023/11/05 03:56:48;;;;;;;;;;;;;;;24.37;36.91;96924.72;4216195;28;20373;-59
2023/11/05 03:58:49;;;;;;;;;;;;;;;24.36;36.76;96927.63;4216162;28;20381;-59
2023/11/05 04:00:51;;;;;;;;;;;;;;;24.36;36.86;96933.00;4216046;28;19927;-58
2023/11/05 04:02:52;;;;;;;;;;;;;;;24.33;36.61;96936.97;4216004;28;19979;-57
2023/11/05 04:04:54;;;;;;;;;;;;;;;24.33;36.97;96947.72;4215886;28;20313;-59
2023/11/05 04:06:56;;;;;;;;;;;;;;;24.24;37.02;96936.53;4215630;28;20301;-58
2023/11/05 04:08:58;;;;;;;;;;;;;;;24.33;36.98;96960.34;4215889;28;20010;-59
2023/11/05 04:11:00;;;;;;;;;;;;;;;24.35;36.60;96959.06;4216133;28;19953;-59
2023/11/05 04:13:01;;;;;;;;;;;;;;;24.36;36.76;96960.69;4215747;28;19967;-58
2023/11/05 04:15:08;;;;;;;;;;;;;;;24.38;36.89;96969.31;4215744;28;20275;-58
2023/11/05 04:17:10;;;;;;;;;;;;;;;24.38;36.84;96971.19;4215716;28;19924;-57
2023/11/05 04:19:12;;;;;;;;;;;;;;;24.37;36.69;96981.09;4215716;28;20007;-59
2023/11/05 04:21:14;;;;;;;;;;;;;;;24.38;36.61;96974.69;4215504;28;20043;-58
2023/11/05 04:23:16;;;;;;;;;;;;;;;24.38;36.53;96979.25;4215389;28;19928;-59
2023/11/05 04:25:17;;;;;;;;;;;;;;;24.37;36.65;96985.66;4214520;28;20024;-58
2023/11/05 04:27:19;;;;;;;;;;;;;;;24.35;36.75;96985.91;4215461;28;19924;-59
2023/11/05 04:29:21;;;;;;;;;;;;;;;24.37;36.59;96996.41;4215388;28;19930;-58
2023/11/05 04:31:22;;;;;;;;;;;;;;;24.39;36.73;96997.00;4215841;28;20343;-59
2023/11/05 04:33:24;;;;;;;;;;;;;;;24.40;36.63;97002.13;4215511;28;20043;-58
2023/11/05 04:35:26;;;;;;;;;;;;;;;24.43;36.89;97003.53;4215301;28;19932;-58
2023/11/05 04:37:32;;;;;;;;;;;;;;;24.45;36.72;97011.34;4215457;28;20031;-59
2023/11/05 04:39:34;;;;;;;;;;;;;;;24.44;36.62;97017.78;4215291;28;19938;-59
2023/11/05 04:41:35;;;;;;;;;;;;;;;24.43;36.67;97018.84;4215557;28;19970;-58
2023/11/05 04:43:37;;;;;;;;;;;;;;;24.43;36.43;97008.09;4215385;28;19924;-58
2023/11/05 04:45:39;;;;;;;;;;;;;;;24.42;36.83;97014.50;4215330;28;19924;-58
2023/11/05 04:47:40;;;;;;;;;;;;;;;24.40;36.82;97023.63;4215338;28;19970;-59
2023/11/05 04:49:42;;;;;;;;;;;;;;;24.41;36.74;97016.34;4214796;28;20011;-58
2023/11/05 04:51:44;;;;;;;;;;;;;;;24.40;36.77;97031.66;4215279;28;19974;-58
2023/11/05 04:53:46;;;;;;;;;;;;;;;24.43;36.60;97030.38;4215387;28;19925;-58
2023/11/05 04:55:47;;;;;;;;;;;;;;;24.45;36.83;97038.19;4214156;28;20015;-59
2023/11/05 04:57:49;;;;;;;;;;;;;;;24.47;36.74;97049.53;4215065;28;20376;-58
2023/11/05 04:59:51;;;;;;;;;;;;;;;24.48;36.80;97059.22;4215326;28;19924;-59
2023/11/05 05:01:58;;;;;;;;;;;;;;;24.48;36.65;97064.59;4215210;28;19924;-58
2023/11/05 05:04:00;;;;;;;;;;;;;;;24.47;36.62;97068.34;4214443;28;19924;-59
2023/11/05 05:06:03;;;;;;;;;;;;;;;24.46;36.75;97066.69;4215064;28;20382;-59
2023/11/05 05:08:05;;;;;;;;;;;;;;;24.44;36.46;97074.19;4214794;28;19928;-59
2023/11/05 05:10:07;;;;;;;;;;;;;;;24.44;36.53;97083.03;4214744;28;19924;-59
2023/11/05 05:12:08;;;;;;;;;;;;;;;24.45;36.58;97081.16;4214732;28;19924;-58
2023/11/05 05:14:10;;;;;;;;;;;;;;;24.43;36.73;97081.41;4214953;28;20385;-59
2023/11/05 05:16:15;;;;;;;;;;;;;;;24.43;36.70;97091.34;4214781;28;19928;-59
2023/11/05 05:18:17;;;;;;;;;;;;;;;24.45;36.57;97089.22;4214382;28;20028;-58
2023/11/05 05:20:19;;;;;;;;;;;;;;;24.45;36.77;97105.34;4214918;28;19955;-59
2023/11/05 05:22:20;;;;;;;;;;;;;;;24.47;36.51;97104.06;4214499;28;19924;-58
2023/11/05 05:24:23;;;;;;;;;;;;;;;24.49;36.51;97106.53;4214740;28;19975;-61
2023/11/05 05:26:25;;;;;;;;;;;;;;;24.48;36.64;97121.81;4214638;28;20297;-58
2023/11/05 05:28:26;;;;;;;;;;;;;;;24.47;36.74;97112.13;4214886;28;19978;-59
2023/11/05 05:30:28;;;;;;;;;;;;;;;24.46;36.52;97129.31;4214544;28;19924;-58
2023/11/05 05:32:29;;;;;;;;;;;;;;;24.45;36.51;97132.19;4214551;28;19930;-59
2023/11/05 05:34:31;;;;;;;;;;;;;;;24.42;36.71;97138.84;4214313;28;19966;-59
2023/11/05 05:36:32;;;;;;;;;;;;;;;24.42;36.61;97132.69;4214571;28;19927;-58
2023/11/05 05:38:34;;;;;;;;;;;;;;;24.44;36.72;97141.34;4214373;28;19931;-58
2023/11/05 05:40:35;;;;;;;;;;;;;;;24.45;36.69;97145.63;4214440;28;20044;-58
2023/11/05 05:42:37;;;;;;;;;;;;;;;24.47;36.69;97163.16;4214591;28;19975;-58
2023/11/05 05:44:39;;;;;;;;;;;;;;;24.48;36.46;97166.66;4214065;28;19938;-58
2023/11/05 05:46:41;;;;;;;;;;;;;;;24.48;36.66;97156.72;4214368;28;19964;-58
2023/11/05 05:48:43;;;;;;;;;;;;;;;24.48;36.46;97183.59;4213964;28;20011;-57
2023/11/05 05:50:45;;;;;;;;;;;;;;;24.38;36.45;97172.63;4214259;28;19969;-57
2023/11/05 05:52:46;;;;;;;;;;;;;;;24.46;36.39;97177.66;4214463;28;19924;-57
2023/11/05 05:54:48;;;;;;;;;;;;;;;24.45;36.63;97208.25;4214322;28;20309;-58
2023/11/05 05:56:50;;;;;;;;;;;;;;;24.43;36.50;97196.09;4214233;28;20292;-58
2023/11/05 05:58:51;;;;;;;;;;;;;;;24.43;36.22;97221.06;4214295;28;19924;-58
2023/11/05 06:00:53;;;;;;;;;;;;;;;24.43;36.46;97213.00;4214032;28;19950;-58
2023/11/05 06:02:54;;;;;;;;;;;;;;;24.44;36.65;97230.78;4213968;28;19931;-58
2023/11/05 06:04:56;;;;;;;;;;;;;;;24.46;36.49;97222.47;4214029;28;19990;-58
2023/11/05 06:06:58;;;;;;;;;;;;;;;24.46;36.50;97238.59;4214125;28;19931;-58
2023/11/05 06:08:59;;;;;;;;;;;;;;;24.47;36.52;97232.97;4213943;28;19931;-57
2023/11/05 06:11:01;;;;;;;;;;;;;;;24.48;36.22;97240.00;4213969;28;19955;-58
2023/11/05 06:13:02;;;;;;;;;;;;;;;24.49;36.36;97254.25;4214091;28;19924;-58
2023/11/05 06:15:04;;;;;;;;;;;;;;;24.49;36.63;97256.94;4213850;28;20015;-58
2023/11/05 06:17:12;;;;;;;;;;;;;;;24.48;36.40;97277.59;4213614;28;19935;-58
2023/11/05 06:19:14;;;;;;;;;;;;;;;24.47;36.62;97265.22;4213861;28;19977;-58
2023/11/05 06:21:17;;;;;;;;;;;;;;;24.45;36.52;97274.56;4214139;28;19931;-58
2023/11/05 06:23:18;;;;;;;;;;;;;;;24.44;36.42;97273.75;4213911;28;19928;-58
2023/11/05 06:25:20;;;;;;;;;;;;;;;24.45;36.68;97293.34;4213830;28;20385;-58
2023/11/05 06:27:22;;;;;;;;;;;;;;;24.47;36.65;97291.28;4213691;28;19925;-58
2023/11/05 06:29:23;;;;;;;;;;;;;;;24.49;36.51;97308.00;4213915;28;20356;-58
2023/11/05 06:31:25;;;;;;;;;;;;;;;24.48;36.04;97306.34;4213543;28;20393;-58
2023/11/05 06:33:26;;;;;;;;;;;;;;;24.50;36.42;97312.31;4213973;28;19959;-58
2023/11/05 06:35:28;;;;;;;;;;;;;;;24.49;36.31;97316.84;4213737;28;19959;-58
2023/11/05 06:37:30;;;;;;;;;;;;;;;24.48;36.33;97334.00;4213719;28;20399;-57
2023/11/05 06:39:33;;;;;;;;;;;;;;;24.47;36.13;97332.38;4213856;28;20345;-59
2023/11/05 06:41:34;;;;;;;;;;;;;;;24.44;36.36;97335.53;4213586;28;20015;-59
2023/11/05 06:43:36;;;;;;;;;;;;;;;24.44;36.16;97354.34;4213787;28;19992;-58
2023/11/05 06:45:37;;;;;;;;;;;;;;;24.43;36.23;97350.00;4213345;28;19924;-58
2023/11/05 06:47:39;;;;;;;;;;;;;;;24.44;36.40;97357.03;4196284;28;19925;-58
2023/11/05 06:49:41;;;;;;;;;;;;;;;24.44;36.41;97373.13;4219004;28;19949;-58
2023/11/05 06:51:42;;;;;;;;;;;;;;;24.47;36.13;97377.22;4200862;28;19925;-58
2023/11/05 06:53:44;;;;;;;;;;;;;;;24.48;36.14;97400.38;4219125;28;19936;-59
2023/11/05 06:55:45;;;;;;;;;;;;;;;24.50;36.29;97390.22;4219173;28;20006;-58
2023/11/05 06:57:47;;;;;;;;;;;;;;;24.52;35.88;97401.53;4219136;28;19946;-58
2023/11/05 06:59:49;;;;;;;;;;;;;;;24.50;36.18;97406.34;4218805;28;19924;-58
2023/11/05 07:01:52;;;;;;;;;;;;;;;24.47;36.00;97406.78;4218378;28;20304;-59
2023/11/05 07:03:53;;;;;;;;;;;;;;;24.44;36.24;97409.94;4219019;28;20031;-59
2023/11/05 07:05:55;;;;;;;;;;;;;;;24.40;36.46;97418.44;4219045;28;20300;-58
2023/11/05 07:07:56;;;;;;;;;;;;;;;24.39;36.38;97418.66;4218902;28;19924;-59
2023/11/05 07:09:58;;;;;;;;;;;;;;;24.39;36.35;97427.53;4218973;28;20373;-59
2023/11/05 07:12:00;;;;;;;;;;;;;;;24.40;36.36;97439.09;4219006;28;20294;-58
2023/11/05 07:14:01;;;;;;;;;;;;;;;24.40;36.34;97445.28;4219031;28;20415;-58
2023/11/05 07:16:03;;;;;;;;;;;;;;;24.43;36.22;97452.06;4218664;28;19924;-57
2023/11/05 07:18:06;;;;;;;;;;;;;;;24.43;36.04;97454.75;4218911;28;19928;-57
2023/11/05 07:20:11;;;;;;;;;;;;;;;24.44;35.99;97469.03;4218849;28;19947;-58
2023/11/05 07:22:13;;;;;;;;;;;;;;;24.43;36.22;97470.06;4219000;28;19924;-57
2023/11/05 07:24:15;;;;;;;;;;;;;;;24.40;36.16;97480.22;4218939;28;20433;-58
2023/11/05 07:26:17;;;;;;;;;;;;;;;24.40;36.37;97485.56;4218849;28;19924;-58
2023/11/05 07:28:18;;;;;;;;;;;;;;;24.39;36.42;97494.69;4218813;28;19985;-58
2023/11/05 07:30:20;;;;;;;;;;;;;;;24.38;36.36;97500.28;4218322;28;19924;-60
2023/11/05 07:32:21;;;;;;;;;;;;;;;24.37;36.07;97507.50;4218672;28;19931;-57
2023/11/05 07:34:23;;;;;;;;;;;;;;;24.39;36.29;97508.09;4218839;28;20278;-57
2023/11/05 07:36:24;;;;;;;;;;;;;;;24.42;36.37;97519.47;4218773;28;19928;-57
2023/11/05 07:38:26;;;;;;;;;;;;;;;24.44;36.08;97528.13;4218847;28;19924;-57
2023/11/05 07:40:27;;;;;;;;;;;;;;;24.45;36.39;97521.69;4218697;28;19961;-57
2023/11/05 07:42:29;;;;;;;;;;;;;;;24.46;36.17;97531.38;4218816;28;19930;-57
2023/11/05 07:44:31;;;;;;;;;;;;;;;24.46;36.45;97540.28;4218318;28;20620;-58
2023/11/05 07:46:33;;;;;;;;;;;;;;;24.46;36.32;97555.56;4218574;28;20020;-58
2023/11/05 07:48:35;;;;;;;;;;;;;;;24.45;36.40;97553.91;4218908;28;19978;-58
2023/11/05 07:50:36;;;;;;;;;;;;;;;24.42;36.08;97554.38;4200463;28;19928;-58
2023/11/05 07:52:41;;;;;;;;;;;;;;;24.39;36.36;97564.50;4218615;28;19924;-58
2023/11/05 07:54:42;;;;;;;;;;;;;;;24.40;36.41;97570.72;4218842;28;20251;-58
2023/11/05 07:56:45;;;;;;;;;;;;;;;24.42;36.28;97578.56;4218574;28;20379;-59
2023/11/05 07:58:48;;;;;;;;;;;;;;;24.44;36.45;97587.22;4218411;28;19924;-58
2023/11/05 08:00:51;;;;;;;;;;;;;;;24.45;36.33;97588.84;4214926;28;19946;-58
2023/11/05 08:02:52;;;;;;;;;;;;;;;24.47;36.37;97592.13;4216051;28;19924;-58
2023/11/05 08:04:56;;;;;;;;;;;;;;;24.47;36.21;97602.88;4215676;28;19970;-57
2023/11/05 08:06:57;;;;;;;;;;;;;;;24.48;36.36;97612.59;4215967;28;19977;-57
2023/11/05 08:08:59;;;;;;;;;;;;;;;24.46;36.04;97614.66;4216079;28;20010;-58
2023/11/05 08:11:00;;;;;;;;;;;;;;;24.45;36.26;97616.53;4215818;28;19928;-58
2023/11/05 08:13:02;;;;;;;;;;;;;;;24.44;36.45;97620.25;4215562;28;19969;-58
2023/11/05 08:15:06;;;;;;;;;;;;;;;24.42;36.15;97637.66;4215625;28;19944;-58
2023/11/05 08:17:11;;;;;;;;;;;;;;;24.43;36.48;97644.66;4215917;28;20344;-58
2023/11/05 08:19:12;;;;;;;;;;;;;;;24.43;36.22;97639.28;4215687;28;19963;-58
2023/11/05 08:21:14;;;;;;;;;;;;;;;24.47;36.33;97649.34;4215573;28;20494;-57
2023/11/05 08:23:17;;;;;;;;;;;;;;;24.49;36.10;97659.91;4215710;28;20054;-58
2023/11/05 08:25:22;;;;;;;;;;;;;;;24.32;36.32;97643.50;4215741;28;20031;-58
2023/11/05 08:27:24;;;;;;;;;;;;;;;24.51;36.02;97684.66;4215390;28;19928;-58
2023/11/05 08:29:26;;;;;;;;;;;;;;;24.50;35.90;97691.91;4215456;28;20026;-58
2023/11/05 08:31:28;;;;;;;;;;;;;;;24.50;36.30;97699.16;4215508;28;19928;-58
2023/11/05 08:33:29;;;;;;;;;;;;;;;24.48;36.21;97709.28;4215305;28;19924;-58
2023/11/05 08:35:36;;;;;;;;;;;;;;;24.48;36.15;97720.84;4215251;28;20023;-58
2023/11/05 08:37:37;;;;;;;;;;;;;;;24.48;36.44;97726.22;4215369;28;20385;-58
2023/11/05 08:39:39;;;;;;;;;;;;;;;24.46;36.49;97741.75;4215314;28;19931;-58
2023/11/05 08:41:41;;;;;;;;;;;;;;;24.47;36.43;97751.44;4197131;28;19924;-58
2023/11/05 08:43:43;;;;;;;;;;;;;;;24.47;36.26;97772.94;4215272;28;19966;-58
2023/11/05 08:45:45;;;;;;;;;;;;;;;24.48;36.19;97773.78;4215225;28;19932;-58
2023/11/05 08:47:51;;;;;;;;;;;;;;;24.50;36.38;97763.63;4215147;28;20396;-58
2023/11/05 08:49:53;;;;;;;;;;;;;;;24.51;36.38;97792.97;4214920;28;20019;-58
2023/11/05 08:51:57;;;;;;;;;;;;;;;24.53;36.32;97806.16;4215205;28;20396;-58
2023/11/05 08:53:59;;;;;;;;;;;;;;;24.51;36.36;97811.78;4215129;28;20007;-57
2023/11/05 08:56:01;;;;;;;;;;;;;;;24.49;36.25;97813.03;4214713;28;19924;-58
2023/11/05 08:58:03;;;;;;;;;;;;;;;24.48;36.32;97822.13;4215134;28;19967;-58
2023/11/05 09:00:11;;;;;;;;;;;;;;;24.47;36.45;97837.41;4214913;28;19928;-58
2023/11/05 09:02:13;;;;;;;;;;;;;;;24.46;36.32;97841.16;4215081;28;19955;-57
2023/11/05 09:04:15;;;;;;;;;;;;;;;24.49;36.54;97856.00;4197017;28;20312;-58
2023/11/05 09:06:18;;;;;;;;;;;;;;;24.49;36.25;97880.19;4214723;28;20359;-57
2023/11/05 09:08:20;;;;;;;;;;;;;;;24.51;36.50;97878.09;4215069;28;20002;-58
2023/11/05 09:10:22;;;;;;;;;;;;;;;24.52;36.21;97895.88;4214783;28;19947;-58
2023/11/05 09:12:25;;;;;;;;;;;;;;;24.53;36.47;97893.00;4214643;28;19985;-58
2023/11/05 09:14:27;;;;;;;;;;;;;;;24.54;36.29;97913.41;4214927;28;20400;-58
2023/11/05 09:16:28;;;;;;;;;;;;;;;24.55;36.36;97911.56;4214872;28;19924;-58
2023/11/05 09:18:30;;;;;;;;;;;;;;;24.54;36.18;97926.03;4214619;28;19928;-58
2023/11/05 09:20:31;;;;;;;;;;;;;;;24.53;36.38;97954.78;4214682;28;19989;-58
2023/11/05 09:22:36;;;;;;;;;;;;;;;24.52;36.46;97947.75;4214860;28;19924;-58
2023/11/05 09:24:38;;;;;;;;;;;;;;;24.50;36.46;97959.75;4214601;28;20496;-58
2023/11/05 09:26:40;;;;;;;;;;;;;;;24.51;36.53;97969.44;4195992;28;19924;-58
2023/11/05 09:28:42;;;;;;;;;;;;;;;24.52;36.49;97966.56;4214819;28;20022;-58
2023/11/05 09:30:45;;;;;;;;;;;;;;;24.53;36.26;97973.59;4214681;28;19924;-58
2023/11/05 09:32:46;;;;;;;;;;;;;;;24.56;36.37;97986.59;4214619;28;20003;-58
2023/11/05 09:34:48;;;;;;;;;;;;;;;24.58;36.38;97986.38;4214537;28;19932;-58
2023/11/05 09:36:50;;;;;;;;;;;;;;;24.60;36.37;98000.41;4196648;28;19931;-57
2023/11/05 09:38:51;;;;;;;;;;;;;;;24.60;36.39;98004.97;4214522;28;19959;-58
2023/11/05 09:40:53;;;;;;;;;;;;;;;24.60;36.29;98013.06;4213933;28;20319;-57
2023/11/05 09:42:58;;;;;;;;;;;;;;;24.58;36.30;98021.28;4214427;28;19935;-57
2023/11/05 09:45:01;;;;;;;;;;;;;;;24.58;36.52;98039.28;4214599;28;19924;-57
2023/11/05 09:47:02;;;;;;;;;;;;;;;24.56;36.21;98048.38;4214258;28;19924;-57
2023/11/05 09:49:04;;;;;;;;;;;;;;;24.55;36.48;98057.47;4213913;28;19930;-57
2023/11/05 09:51:08;;;;;;;;;;;;;;;24.58;36.51;98068.84;4214118;28;19974;-58
2023/11/05 09:53:11;;;;;;;;;;;;;;;24.59;36.15;98068.63;4214409;28;19966;-57
2023/11/05 09:55:13;;;;;;;;;;;;;;;24.63;36.40;98085.16;4214042;28;19982;-57
2023/11/05 09:57:14;;;;;;;;;;;;;;;24.65;36.18;98083.91;4214323;28;19928;-56
2023/11/05 09:59:16;;;;;;;;;;;;;;;24.66;36.44;98095.53;4214323;28;19928;-57
2023/11/05 10:01:17;;;;;;;;;;;;;;;24.65;36.20;98100.03;4214221;28;19924;-57
2023/11/05 10:03:19;;;;;;;;;;;;;;;24.67;36.23;98108.75;4213921;28;19924;-57
2023/11/05 10:05:22;;;;;;;;;;;;;;;24.66;36.30;98128.59;4213883;28;19999;-58
2023/11/05 10:07:24;;;;;;;;;;;;;;;24.66;36.26;98143.91;4214275;28;19924;-57
2023/11/05 10:09:26;;;;;;;;;;;;;;;24.64;36.45;98141.41;4213698;28;20411;-57
2023/11/05 10:11:28;;;;;;;;;;;;;;;24.63;36.31;98155.88;4214257;28;20385;-57
2023/11/05 10:13:31;;;;;;;;;;;;;;;24.64;36.48;98167.44;4213989;28;20006;-58
2023/11/05 10:15:33;;;;;;;;;;;;;;;24.65;36.37;98163.72;4214035;28;19970;-58
2023/11/05 10:17:35;;;;;;;;;;;;;;;24.68;36.30;98174.06;4213919;28;19931;-58
2023/11/05 10:19:36;;;;;;;;;;;;;;;24.68;36.22;98176.75;4213866;28;20397;-57
2023/11/05 10:21:38;;;;;;;;;;;;;;;24.70;36.57;98183.59;4213915;28;19930;-57
2023/11/05 10:23:50;;;;;;;;;;;;;;;24.71;36.28;98197.84;4212882;28;20343;-57
2023/11/05 10:25:53;;;;;;;;;;;;;;;24.71;36.37;98203.22;4213910;28;19924;-57
2023/11/05 10:27:54;;;;;;;;;;;;;;;24.71;36.35;98211.28;4213879;28;19978;-57
2023/11/05 10:29:56;;;;;;;;;;;;;;;24.71;36.45;98213.97;4213949;28;19932;-58
2023/11/05 10:31:59;;;;;;;;;;;;;;;24.70;36.09;98231.13;4213881;28;19996;-58
2023/11/05 10:34:03;;;;;;;;;;;;;;;24.67;36.26;98234.25;4213981;28;19971;-57
2023/11/05 10:36:06;;;;;;;;;;;;;;;24.67;36.32;98239.63;4213833;28;19928;-58